Time;durP1;ratioP1;P1;durP2;ratioP2;P2;SDS_P1;SDS_P2;PMS_P1;PMS_P2;Temp;Humidity;BMP_temperature;BMP_pressure;BME280_temperature;BME280_humidity;BME280_pressure;Samples;Min_cycle;Max_cycle;Signal;HPM_P1;HPM_P2
2023/09/18 00:00:51;;;;;;;8.10;3.90;;;19.30;99.90;;;;;;5034096;28;20029;-55
2023/09/18 00:03:19;;;;;;;7.18;3.60;;;19.20;99.90;;;;;;5017151;28;20398;-52
2023/09/18 00:05:47;;;;;;;9.27;4.18;;;19.20;99.90;;;;;;5033961;28;20080;-53
2023/09/18 00:08:13;;;;;;;6.72;3.40;;;19.20;99.90;;;;;;5033098;28;20061;-52
2023/09/18 00:10:40;;;;;;;7.65;3.97;;;19.20;99.90;;;;;;5032641;28;20041;-55
2023/09/18 00:13:05;;;;;;;7.53;4.43;;;19.20;99.90;;;;;;5032858;28;20037;-54
2023/09/18 00:15:31;;;;;;;7.05;4.03;;;19.10;99.90;;;;;;5032877;28;20035;-53
2023/09/18 00:17:56;;;;;;;7.97;4.10;;;19.10;99.90;;;;;;5032747;28;20153;-52
2023/09/18 00:20:26;;;;;;;8.95;4.38;;;19.10;99.90;;;;;;5032533;28;20025;-54
2023/09/18 00:22:55;;;;;;;9.30;4.53;;;19.10;99.90;;;;;;5032444;28;20045;-53
2023/09/18 00:25:22;;;;;;;7.63;3.92;;;19.10;99.90;;;;;;5032968;28;20056;-52
2023/09/18 00:27:48;;;;;;;10.63;4.50;;;19.10;99.90;;;;;;5032705;28;20029;-53
2023/09/18 00:30:13;;;;;;;7.55;3.97;;;19.10;99.90;;;;;;5015152;28;20500;-55
2023/09/18 00:32:39;;;;;;;7.90;4.10;;;19.10;99.90;;;;;;5032774;28;20060;-54
2023/09/18 00:35:05;;;;;;;9.27;3.75;;;19.10;99.90;;;;;;5015016;28;20067;-52
2023/09/18 00:37:30;;;;;;;5.80;3.67;;;19.10;99.90;;;;;;5015103;28;20033;-54
2023/09/18 00:39:56;;;;;;;6.50;4.00;;;19.00;99.90;;;;;;5032313;28;20218;-55
2023/09/18 00:42:22;;;;;;;7.72;4.03;;;19.00;99.90;;;;;;4998971;28;20549;-54
2023/09/18 00:44:49;;;;;;;7.35;4.00;;;19.00;99.90;;;;;;5032980;28;20069;-54
2023/09/18 00:47:16;;;;;;;6.95;3.88;;;19.00;99.90;;;;;;5015332;28;20504;-55
2023/09/18 00:49:45;;;;;;;6.35;4.03;;;18.90;99.90;;;;;;5032226;28;20374;-53
2023/09/18 00:52:12;;;;;;;6.38;3.55;;;18.90;99.90;;;;;;5032654;28;20112;-55
2023/09/18 00:54:40;;;;;;;7.82;4.03;;;18.90;99.90;;;;;;5014532;28;20026;-51
2023/09/18 00:57:05;;;;;;;6.43;4.10;;;18.90;99.90;;;;;;4998606;28;20033;-50
2023/09/18 00:59:32;;;;;;;8.52;4.38;;;18.90;99.90;;;;;;5014329;28;20084;-54
2023/09/18 01:01:58;;;;;;;7.70;3.92;;;18.90;99.90;;;;;;5032691;28;20434;-54
2023/09/18 01:04:26;;;;;;;7.03;4.13;;;18.80;99.90;;;;;;5015114;28;20032;-54
2023/09/18 01:06:54;;;;;;;7.38;4.18;;;18.80;99.90;;;;;;5015137;28;20124;-53
2023/09/18 01:09:20;;;;;;;6.47;4.07;;;18.80;99.90;;;;;;4997961;28;20600;-54
2023/09/18 01:12:08;;;;;;;6.97;4.13;;;18.80;99.90;;;;;;5015157;28;20124;-54
2023/09/18 01:14:42;;;;;;;8.30;3.97;;;18.80;99.90;;;;;;5032484;28;20041;-54
2023/09/18 01:17:10;;;;;;;8.32;4.07;;;18.80;99.90;;;;;;5014894;28;20049;-54
2023/09/18 01:19:46;;;;;;;8.68;3.70;;;18.80;99.90;;;;;;5014416;28;20026;-54
2023/09/18 01:22:14;;;;;;;10.30;4.28;;;18.80;99.90;;;;;;5014833;28;20029;-51
2023/09/18 01:24:43;;;;;;;8.23;4.55;;;18.80;99.90;;;;;;5014972;28;20037;-54
2023/09/18 01:27:16;;;;;;;7.05;4.05;;;18.80;99.90;;;;;;5032554;28;20032;-53
2023/09/18 01:29:43;;;;;;;8.90;4.43;;;18.80;99.90;;;;;;5032139;28;20484;-54
2023/09/18 01:32:08;;;;;;;8.27;4.50;;;18.70;99.90;;;;;;5014442;28;20063;-54
2023/09/18 01:34:39;;;;;;;6.95;4.10;;;18.70;99.90;;;;;;5015622;28;20142;-55
2023/09/18 01:37:06;;;;;;;9.25;4.55;;;18.70;99.90;;;;;;5018405;28;20036;-51
2023/09/18 01:39:34;;;;;;;7.90;3.70;;;18.70;99.90;;;;;;5017857;28;20026;-52
2023/09/18 01:42:05;;;;;;;6.95;3.92;;;18.70;99.90;;;;;;5036127;28;20029;-54
2023/09/18 01:44:31;;;;;;;7.63;4.15;;;18.70;99.90;;;;;;5036148;28;20033;-54
2023/09/18 01:47:01;;;;;;;7.20;3.97;;;18.70;99.90;;;;;;5017837;28;20049;-54
2023/09/18 01:49:34;;;;;;;6.65;3.85;;;18.60;99.90;;;;;;5017458;28;20038;-54
2023/09/18 01:52:01;;;;;;;8.75;4.13;;;18.60;99.90;;;;;;5036105;28;20029;-54
2023/09/18 01:54:26;;;;;;;7.90;3.85;;;18.60;99.90;;;;;;5018399;28;20079;-53
2023/09/18 01:56:53;;;;;;;8.70;4.40;;;18.50;99.90;;;;;;5036485;28;20279;-54
2023/09/18 01:59:20;;;;;;;10.75;4.55;;;18.50;99.90;;;;;;5017546;28;20036;-54
2023/09/18 02:01:46;;;;;;;8.82;4.32;;;18.50;99.90;;;;;;5017869;28;20029;-53
2023/09/18 02:04:12;;;;;;;7.53;4.43;;;18.50;99.90;;;;;;5018178;28;20032;-54
2023/09/18 02:06:38;;;;;;;9.18;3.97;;;18.50;99.90;;;;;;5018038;28;20115;-55
2023/09/18 02:09:03;;;;;;;9.13;4.50;;;18.50;99.90;;;;;;5017868;28;20069;-53
2023/09/18 02:11:29;;;;;;;7.90;4.05;;;18.50;99.90;;;;;;5018054;28;20292;-54
2023/09/18 02:13:56;;;;;;;8.02;4.55;;;18.50;99.90;;;;;;5017873;28;20099;-54
2023/09/18 02:16:22;;;;;;;10.18;4.47;;;18.50;99.90;;;;;;5035420;28;20021;-54
2023/09/18 02:18:48;;;;;;;8.63;4.25;;;18.50;99.90;;;;;;5017243;28;20033;-54
2023/09/18 02:21:20;;;;;;;6.68;3.80;;;18.50;99.90;;;;;;5017946;28;20033;-52
2023/09/18 02:23:52;;;;;;;7.65;4.15;;;18.50;99.90;;;;;;5035377;28;20036;-55
2023/09/18 02:26:18;;;;;;;10.15;4.43;;;18.60;99.90;;;;;;5035346;28;20064;-50
2023/09/18 02:28:45;;;;;;;9.10;3.90;;;18.60;99.90;;;;;;5034973;28;20029;-55
2023/09/18 02:31:13;;;;;;;7.82;4.32;;;18.60;99.90;;;;;;5035827;28;20083;-55
2023/09/18 02:33:39;;;;;;;9.40;3.92;;;18.60;99.90;;;;;;5017691;28;20452;-55
2023/09/18 02:36:05;;;;;;;9.27;4.10;;;18.60;99.90;;;;;;5001440;28;20026;-54
2023/09/18 02:38:31;;;;;;;6.18;3.88;;;18.60;99.90;;;;;;5017304;28;20025;-55
2023/09/18 02:40:56;;;;;;;7.72;4.15;;;18.60;99.90;;;;;;5017502;28;20065;-55
2023/09/18 02:43:23;;;;;;;8.00;3.78;;;18.60;99.90;;;;;;5017750;28;20030;-51
2023/09/18 02:45:49;;;;;;;7.63;4.00;;;18.60;99.90;;;;;;5017478;28;20038;-55
2023/09/18 02:48:15;;;;;;;9.40;3.97;;;18.60;99.90;;;;;;5035136;28;20422;-51
2023/09/18 02:50:40;;;;;;;9.32;3.75;;;18.60;99.90;;;;;;5016888;28;20040;-53
2023/09/18 02:53:08;;;;;;;11.05;4.07;;;18.60;99.90;;;;;;5017885;28;20040;-55
2023/09/18 02:55:34;;;;;;;8.27;3.63;;;18.70;99.90;;;;;;5017713;28;20104;-55
2023/09/18 02:58:00;;;;;;;8.40;3.53;;;18.70;99.90;;;;;;5001140;28;20543;-53
2023/09/18 03:00:26;;;;;;;6.93;3.75;;;18.90;99.90;;;;;;5018136;28;20025;-54
2023/09/18 03:02:51;;;;;;;7.93;3.40;;;19.20;99.90;;;;;;5036009;28;20037;-51
2023/09/18 03:05:17;;;;;;;7.95;3.58;;;19.30;99.90;;;;;;5018031;28;20033;-54
2023/09/18 03:07:44;;;;;;;5.15;3.45;;;19.50;99.90;;;;;;5017737;28;20073;-53
2023/09/18 03:10:13;;;;;;;5.30;3.10;;;19.70;99.90;;;;;;5018070;28;20034;-50
2023/09/18 03:12:40;;;;;;;11.88;3.72;;;19.80;99.90;;;;;;5018829;28;20044;-54
2023/09/18 03:15:06;;;;;;;7.63;3.28;;;19.80;99.90;;;;;;5036405;28;20018;-53
2023/09/18 03:17:33;;;;;;;5.80;2.90;;;19.90;99.90;;;;;;5018144;28;20560;-50
2023/09/18 03:19:59;;;;;;;8.65;3.13;;;20.10;99.90;;;;;;5017664;28;20021;-54
2023/09/18 03:22:25;;;;;;;6.28;3.05;;;20.20;99.90;;;;;;5018173;28;20025;-52
2023/09/18 03:24:52;;;;;;;5.00;2.47;;;20.30;99.90;;;;;;5018311;28;20030;-52
2023/09/18 03:27:17;;;;;;;5.80;2.78;;;20.50;99.90;;;;;;5017920;28;20044;-53
2023/09/18 03:29:43;;;;;;;7.38;3.40;;;20.60;99.90;;;;;;5017341;28;20029;-50
2023/09/18 03:32:12;;;;;;;5.53;2.90;;;20.60;99.90;;;;;;5017666;28;20128;-50
2023/09/18 03:34:38;;;;;;;5.28;2.78;;;20.70;99.90;;;;;;5017958;28;20032;-51
2023/09/18 03:37:04;;;;;;;6.05;2.95;;;20.70;99.90;;;;;;5017202;28;20037;-49
2023/09/18 03:39:29;;;;;;;4.55;2.72;;;20.80;99.90;;;;;;5000509;28;20037;-51
2023/09/18 03:41:55;;;;;;;7.18;3.22;;;20.80;99.90;;;;;;5016645;28;20036;-52
2023/09/18 03:44:21;;;;;;;5.45;2.88;;;20.80;99.90;;;;;;5033706;28;20026;-55
2023/09/18 03:46:46;;;;;;;4.65;2.80;;;20.90;99.90;;;;;;5033722;28;20052;-53
2023/09/18 03:49:12;;;;;;;6.72;2.92;;;20.90;99.90;;;;;;5032900;28;20032;-53
2023/09/18 03:51:38;;;;;;;4.55;3.00;;;21.00;99.90;;;;;;5016251;28;20588;-53
2023/09/18 03:54:04;;;;;;;7.05;2.97;;;21.10;99.90;;;;;;5015223;28;20033;-49
2023/09/18 03:56:29;;;;;;;5.43;2.80;;;21.10;99.90;;;;;;5033698;28;20112;-54
2023/09/18 03:58:57;;;;;;;4.82;2.92;;;21.10;99.90;;;;;;5014883;28;20029;-53
2023/09/18 04:01:23;;;;;;;6.55;3.17;;;21.10;99.90;;;;;;5016109;28;20462;-53
2023/09/18 04:03:48;;;;;;;5.55;2.97;;;21.10;99.90;;;;;;5015869;28;20037;-53
2023/09/18 04:06:14;;;;;;;4.28;2.45;;;21.20;99.90;;;;;;5016218;28;20037;-54
2023/09/18 04:08:39;;;;;;;7.82;2.70;;;21.10;99.90;;;;;;5015728;28;20037;-55
2023/09/18 04:11:09;;;;;;;6.38;2.47;;;21.20;99.90;;;;;;5000142;28;20036;-54
2023/09/18 04:13:35;;;;;;;6.10;2.95;;;21.10;99.90;;;;;;5015750;28;20037;-51
2023/09/18 04:16:00;;;;;;;6.95;2.78;;;21.10;99.90;;;;;;5033901;28;20044;-53
2023/09/18 04:18:27;;;;;;;6.03;2.95;;;21.10;99.90;;;;;;5016109;28;20036;-52
2023/09/18 04:20:53;;;;;;;7.18;2.83;;;21.10;99.90;;;;;;5015720;28;20121;-53
2023/09/18 04:23:24;;;;;;;6.72;2.92;;;21.10;99.90;;;;;;5000057;28;20053;-53
2023/09/18 04:25:52;;;;;;;9.10;3.42;;;21.10;99.90;;;;;;5016009;28;20064;-51
2023/09/18 04:28:20;;;;;;;5.80;2.97;;;21.10;99.90;;;;;;5015950;28;20043;-52
2023/09/18 04:30:46;;;;;;;5.65;2.92;;;21.20;99.90;;;;;;5015700;28;20034;-54
2023/09/18 04:33:14;;;;;;;8.02;2.88;;;21.20;99.90;;;;;;5033327;28;20426;-51
2023/09/18 04:35:40;;;;;;;5.25;2.55;;;21.30;99.90;;;;;;5016068;28;20416;-53
2023/09/18 04:38:10;;;;;;;8.98;3.25;;;21.30;99.90;;;;;;5016590;28;20112;-54
2023/09/18 04:40:37;;;;;;;9.02;3.40;;;21.30;99.90;;;;;;5015511;28;20117;-51
2023/09/18 04:43:06;;;;;;;4.22;2.67;;;21.30;99.90;;;;;;5016229;28;20040;-54
2023/09/18 04:45:32;;;;;;;10.25;5.50;;;21.30;99.90;;;;;;5016369;28;20029;-54
2023/09/18 04:47:58;;;;;;;7.45;3.08;;;21.30;99.90;;;;;;5016157;28;20082;-53
2023/09/18 04:50:26;;;;;;;6.10;3.58;;;21.30;99.90;;;;;;5016270;28;20402;-50
2023/09/18 04:52:54;;;;;;;6.03;3.30;;;21.30;99.90;;;;;;5016321;28;20029;-54
2023/09/18 04:55:20;;;;;;;9.65;5.72;;;21.20;99.90;;;;;;4999143;28;20489;-51
2023/09/18 04:57:45;;;;;;;9.00;4.32;;;21.20;99.90;;;;;;5033425;28;20048;-49
2023/09/18 05:00:13;;;;;;;5.70;2.70;;;21.20;99.90;;;;;;5015563;28;20095;-52
2023/09/18 05:02:39;;;;;;;7.40;3.83;;;21.20;99.90;;;;;;5015520;28;20039;-52
2023/09/18 05:05:06;;;;;;;6.03;2.95;;;21.20;99.90;;;;;;5033866;28;20052;-52
2023/09/18 05:07:32;;;;;;;6.72;3.67;;;21.10;99.90;;;;;;5015984;28;20030;-53
2023/09/18 05:09:58;;;;;;;7.40;2.80;;;21.10;99.90;;;;;;5035567;28;20029;-53
2023/09/18 05:12:23;;;;;;;9.02;4.35;;;21.10;99.90;;;;;;5037609;28;20092;-54
2023/09/18 05:14:50;;;;;;;10.30;4.03;;;21.10;99.90;;;;;;5037826;28;20025;-53
2023/09/18 05:17:17;;;;;;;6.65;2.92;;;21.00;99.90;;;;;;5038028;28;20029;-53
2023/09/18 05:19:44;;;;;;;6.88;3.25;;;21.00;99.90;;;;;;5037692;28;20033;-50
2023/09/18 05:22:12;;;;;;;6.93;3.10;;;20.90;99.90;;;;;;5036111;28;20498;-53
2023/09/18 05:24:39;;;;;;;7.75;3.15;;;20.90;99.90;;;;;;5018175;28;20474;-53
2023/09/18 05:27:06;;;;;;;12.23;6.70;;;20.90;99.90;;;;;;5036335;28;20075;-55
2023/09/18 05:29:32;;;;;;;9.40;3.50;;;20.80;99.90;;;;;;5035621;28;20025;-52
2023/09/18 05:31:57;;;;;;;7.18;3.42;;;20.80;99.90;;;;;;5035829;28;20034;-54
2023/09/18 05:34:23;;;;;;;5.47;2.85;;;20.80;99.90;;;;;;5036016;28;20033;-54
2023/09/18 05:36:49;;;;;;;5.07;2.70;;;20.70;99.90;;;;;;5036014;28;20029;-54
2023/09/18 05:39:15;;;;;;;7.30;3.00;;;20.70;99.90;;;;;;5035965;28;20037;-54
2023/09/18 05:41:41;;;;;;;13.73;7.15;;;20.70;99.90;;;;;;5035652;28;20021;-54
2023/09/18 05:44:07;;;;;;;5.82;3.20;;;20.70;99.90;;;;;;5036371;28;20065;-54
2023/09/18 05:46:36;;;;;;;9.27;4.20;;;20.70;99.90;;;;;;5036247;28;20038;-50
2023/09/18 05:49:02;;;;;;;8.80;4.70;;;20.70;99.90;;;;;;5036607;28;20044;-52
2023/09/18 05:51:27;;;;;;;12.63;6.63;;;20.70;99.90;;;;;;5037232;28;20035;-54
2023/09/18 05:53:53;;;;;;;10.30;5.38;;;20.70;99.90;;;;;;5036734;28;20113;-53
2023/09/18 05:56:19;;;;;;;9.75;4.35;;;20.70;99.90;;;;;;5036023;28;20500;-55
2023/09/18 05:58:44;;;;;;;12.23;6.05;;;20.70;99.90;;;;;;5017531;28;20261;-55
2023/09/18 06:01:10;;;;;;;10.95;5.50;;;20.80;99.90;;;;;;5035563;28;20017;-54
2023/09/18 06:03:36;;;;;;;18.58;7.43;;;20.80;99.90;;;;;;5035712;28;20033;-54
2023/09/18 06:06:02;;;;;;;6.43;3.33;;;20.70;99.90;;;;;;5018399;28;20038;-55
2023/09/18 06:08:30;;;;;;;4.72;2.70;;;20.70;99.90;;;;;;5035715;28;20413;-53
2023/09/18 06:10:56;;;;;;;6.72;2.90;;;20.70;99.90;;;;;;5035343;28;20037;-55
2023/09/18 06:13:24;;;;;;;7.72;3.33;;;20.70;99.90;;;;;;5035139;28;20033;-53
2023/09/18 06:15:52;;;;;;;6.03;3.03;;;20.70;99.90;;;;;;5035414;28;20037;-55
2023/09/18 06:18:20;;;;;;;7.83;4.10;;;20.70;99.90;;;;;;5035287;28;20034;-52
2023/09/18 06:20:46;;;;;;;12.43;5.80;;;20.70;99.90;;;;;;5034282;28;20034;-55
2023/09/18 06:23:12;;;;;;;5.68;2.80;;;20.70;99.90;;;;;;5035304;28;20030;-55
2023/09/18 06:25:39;;;;;;;7.00;3.00;;;20.70;99.90;;;;;;5034453;28;20516;-51
2023/09/18 06:28:05;;;;;;;4.65;2.42;;;20.80;99.90;;;;;;5033772;28;20382;-52
2023/09/18 06:30:31;;;;;;;6.97;3.22;;;20.80;99.90;;;;;;5034290;28;20079;-52
2023/09/18 06:32:56;;;;;;;4.82;2.17;;;20.90;99.90;;;;;;5035163;28;20061;-52
2023/09/18 06:35:22;;;;;;;4.78;2.35;;;20.90;99.90;;;;;;5035666;28;20045;-51
2023/09/18 06:37:48;;;;;;;13.05;6.57;;;20.90;99.90;;;;;;5035567;28;20029;-51
2023/09/18 06:40:13;;;;;;;7.88;1.92;;;20.90;99.90;;;;;;5035773;28;20033;-54
2023/09/18 06:42:39;;;;;;;9.02;2.60;;;21.00;99.90;;;;;;5036705;28;20417;-49
2023/09/18 06:45:06;;;;;;;4.85;2.33;;;20.90;99.90;;;;;;5036291;28;20115;-55
2023/09/18 06:47:33;;;;;;;12.13;6.82;;;21.00;99.90;;;;;;5036796;28;20029;-51
2023/09/18 06:50:00;;;;;;;16.45;7.57;;;21.00;99.90;;;;;;5036005;28;20405;-51
2023/09/18 06:52:27;;;;;;;6.40;2.63;;;21.00;99.90;;;;;;5035790;28;20470;-49
2023/09/18 06:54:53;;;;;;;6.18;3.53;;;21.00;99.90;;;;;;5035969;28;20032;-50
2023/09/18 06:57:21;;;;;;;5.30;2.33;;;21.00;99.90;;;;;;5042056;28;20120;-51
2023/09/18 06:59:47;;;;;;;3.50;1.80;;;21.00;99.90;;;;;;5025007;28;20021;-51
2023/09/18 07:02:16;;;;;;;4.97;1.88;;;21.10;99.90;;;;;;5024978;28;20087;-50
2023/09/18 07:04:45;;;;;;;9.80;3.80;;;21.20;99.90;;;;;;5036971;28;20032;-48
2023/09/18 07:07:12;;;;;;;9.15;3.75;;;21.10;99.90;;;;;;5036996;28;20398;-49
2023/09/18 07:09:38;;;;;;;4.20;1.83;;;21.20;99.90;;;;;;5017614;28;20033;-51
2023/09/18 07:12:04;;;;;;;4.78;2.50;;;21.20;99.90;;;;;;5035383;28;20028;-50
2023/09/18 07:14:30;;;;;;;4.20;1.85;;;21.20;99.90;;;;;;5018021;28;20037;-50
2023/09/18 07:16:56;;;;;;;5.00;2.85;;;21.20;99.90;;;;;;5036186;28;20033;-51
2023/09/18 07:19:22;;;;;;;6.63;1.83;;;21.20;99.90;;;;;;5035792;28;20041;-51
2023/09/18 07:21:47;;;;;;;6.97;3.05;;;21.20;99.90;;;;;;5018159;28;20105;-50
2023/09/18 07:24:16;;;;;;;6.90;2.90;;;21.20;99.90;;;;;;5036363;28;20045;-50
2023/09/18 07:26:47;;;;;;;4.15;1.55;;;21.20;99.90;;;;;;5036164;28;20498;-53
2023/09/18 07:29:14;;;;;;;2.88;1.33;;;21.20;99.90;;;;;;5035450;28;20513;-50
2023/09/18 07:31:43;;;;;;;3.17;1.37;;;21.20;99.90;;;;;;5034941;28;20033;-50
2023/09/18 07:34:10;;;;;;;5.63;1.67;;;21.20;99.90;;;;;;5035641;28;20037;-49
2023/09/18 07:36:36;;;;;;;5.05;1.42;;;21.20;99.90;;;;;;5035274;28;20053;-54
2023/09/18 07:39:02;;;;;;;4.70;1.15;;;21.20;99.90;;;;;;5034405;28;20039;-52
2023/09/18 07:41:28;;;;;;;3.50;1.60;;;21.20;99.90;;;;;;5035105;28;20115;-48
2023/09/18 07:43:53;;;;;;;5.18;1.52;;;21.20;99.90;;;;;;5035735;28;20429;-51
2023/09/18 07:46:19;;;;;;;3.85;1.27;;;21.20;99.90;;;;;;5017330;28;20128;-51
2023/09/18 07:48:44;;;;;;;4.53;1.50;;;21.20;99.90;;;;;;5034942;28;20040;-50
2023/09/18 07:51:13;;;;;;;4.70;1.20;;;21.20;99.90;;;;;;5035318;28;20030;-54
2023/09/18 07:53:39;;;;;;;;;;;21.30;99.90;;;;;;5034527;28;20026;-54
2023/09/18 07:56:05;;;;;;;3.72;1.40;;;21.20;99.90;;;;;;5033363;28;20281;-54
2023/09/18 07:58:33;;;;;;;2.47;1.10;;;21.20;99.90;;;;;;5033384;28;20108;-52
2023/09/18 08:00:59;;;;;;;2.83;0.97;;;21.20;99.90;;;;;;5034168;28;20026;-54
2023/09/18 08:03:26;;;;;;;4.50;1.05;;;21.30;99.90;;;;;;5032560;28;20432;-54
2023/09/18 08:05:53;;;;;;;4.85;1.08;;;21.30;99.90;;;;;;5032134;28;20381;-53
2023/09/18 08:08:20;;;;;;;1.90;0.82;;;21.40;99.90;;;;;;5032264;28;20091;-54
2023/09/18 08:10:46;;;;;;;1.95;1.00;;;21.40;99.90;;;;;;5032149;28;20075;-54
2023/09/18 08:13:13;;;;;;;1.58;0.85;;;21.40;99.90;;;;;;5031983;28;20394;-52
2023/09/18 08:15:39;;;;;;;5.68;1.10;;;21.40;99.90;;;;;;5031483;28;20041;-54
2023/09/18 08:18:04;;;;;;;3.78;1.10;;;21.40;99.90;;;;;;5031071;28;20128;-52
2023/09/18 08:20:30;;;;;;;1.67;1.02;;;21.40;99.90;;;;;;5031188;28;20030;-53
2023/09/18 08:22:56;;;;;;;2.75;1.00;;;21.30;99.90;;;;;;5031762;28;20100;-51
2023/09/18 08:25:22;;;;;;;3.60;0.88;;;21.40;99.90;;;;;;5030657;28;20041;-51
2023/09/18 08:27:48;;;;;;;4.43;1.25;;;21.40;99.90;;;;;;5032013;28;20025;-53
2023/09/18 08:30:17;;;;;;;2.72;1.30;;;21.50;99.90;;;;;;5031991;28;20085;-54
2023/09/18 08:32:43;;;;;;;6.47;1.02;;;21.50;99.90;;;;;;5032535;28;20040;-53
2023/09/18 08:35:09;;;;;;;3.85;1.10;;;21.50;99.90;;;;;;5032395;28;20033;-52
2023/09/18 08:37:34;;;;;;;4.13;1.23;;;21.50;99.90;;;;;;5031859;28;20034;-50
2023/09/18 08:40:00;;;;;;;1.92;0.85;;;21.50;99.90;;;;;;5031585;28;20048;-51
2023/09/18 08:42:29;;;;;;;3.72;1.10;;;21.50;99.90;;;;;;5031798;28;20030;-51
2023/09/18 08:44:59;;;;;;;1.48;0.77;;;21.50;99.90;;;;;;5031625;28;20033;-51
2023/09/18 08:47:25;;;;;;;2.72;0.60;;;21.50;99.90;;;;;;5031449;28;20029;-51
2023/09/18 08:49:52;;;;;;;3.00;1.10;;;21.50;99.90;;;;;;5031327;28;20022;-51
2023/09/18 08:52:18;;;;;;;2.10;0.82;;;21.40;99.90;;;;;;5032048;28;20034;-54
2023/09/18 08:54:45;;;;;;;2.55;0.90;;;21.40;99.90;;;;;;5031720;28;20029;-50
2023/09/18 08:57:11;;;;;;;3.08;1.15;;;21.50;99.90;;;;;;5032469;28;20034;-52
2023/09/18 08:59:39;;;;;;;1.23;0.75;;;21.50;99.90;;;;;;5032215;28;20471;-51
2023/09/18 09:02:04;;;;;;;2.75;0.90;;;21.50;99.90;;;;;;5031939;28;20022;-50
2023/09/18 09:04:30;;;;;;;3.80;0.90;;;21.60;99.90;;;;;;4998169;28;20433;-51
2023/09/18 09:06:59;;;;;;;1.08;0.70;;;21.60;99.90;;;;;;5014614;28;20044;-49
2023/09/18 09:09:26;;;;;;;1.10;0.82;;;21.60;99.90;;;;;;5013851;28;20097;-49
2023/09/18 09:11:52;;;;;;;2.08;0.70;;;21.70;99.90;;;;;;5031914;28;20117;-51
2023/09/18 09:14:21;;;;;;;2.35;0.60;;;21.70;99.90;;;;;;5032252;28;20128;-50
2023/09/18 09:16:48;;;;;;;1.05;0.80;;;21.70;99.90;;;;;;5032190;28;20044;-54
2023/09/18 09:19:17;;;;;;;2.50;0.82;;;21.80;99.90;;;;;;5031966;28;20025;-52
2023/09/18 09:21:43;;;;;;;3.50;1.20;;;21.90;99.90;;;;;;5032284;28;20030;-50
2023/09/18 09:24:16;;;;;;;2.20;0.88;;;21.90;99.90;;;;;;5032003;28;20041;-53
2023/09/18 09:26:42;;;;;;;1.48;0.80;;;22.00;99.90;;;;;;5031608;28;20121;-51
2023/09/18 09:29:20;;;;;;;1.38;0.75;;;22.00;99.90;;;;;;5031213;28;20523;-52
2023/09/18 09:31:46;;;;;;;2.15;0.95;;;22.00;99.90;;;;;;5031810;28;20036;-50
2023/09/18 09:34:23;;;;;;;2.53;1.20;;;21.90;99.90;;;;;;5031619;28;20206;-51
2023/09/18 09:36:56;;;;;;;1.95;0.90;;;22.00;99.90;;;;;;5031911;28;20038;-53
2023/09/18 09:39:24;;;;;;;1.85;1.10;;;22.10;99.90;;;;;;5013558;28;20120;-52
2023/09/18 09:41:51;;;;;;;2.25;0.70;;;22.20;99.90;;;;;;5031769;28;20029;-54
2023/09/18 09:44:18;;;;;;;3.10;1.13;;;22.10;99.90;;;;;;5014037;28;20573;-54
2023/09/18 09:46:51;;;;;;;4.75;1.20;;;22.20;99.90;;;;;;5031668;28;20032;-50
2023/09/18 09:49:19;;;;;;;1.77;0.75;;;22.20;99.90;;;;;;5030907;28;20029;-51
2023/09/18 09:51:46;;;;;;;1.90;0.90;;;22.10;99.90;;;;;;5014116;28;20172;-51
2023/09/18 09:54:12;;;;;;;2.72;0.90;;;22.10;99.90;;;;;;5030899;28;20034;-54
2023/09/18 09:56:42;;;;;;;2.75;0.80;;;22.20;99.90;;;;;;5033955;28;20033;-49
2023/09/18 09:59:08;;;;;;;1.35;0.70;;;22.30;99.90;;;;;;5016344;28;20021;-54
2023/09/18 10:01:35;;;;;;;1.88;0.80;;;22.40;99.90;;;;;;5034689;28;20037;-54
2023/09/18 10:04:07;;;;;;;1.60;0.98;;;22.60;99.90;;;;;;5034831;28;20051;-54
2023/09/18 10:06:34;;;;;;;3.83;1.00;;;22.70;99.90;;;;;;5034591;28;20474;-51
2023/09/18 10:09:06;;;;;;;3.38;1.38;;;22.70;99.90;;;;;;5034150;28;20478;-53
2023/09/18 10:11:36;;;;;;;2.75;1.00;;;22.80;99.90;;;;;;5034598;28;20041;-51
2023/09/18 10:14:32;;;;;;;3.83;0.82;;;22.80;99.90;;;;;;5034470;28;20517;-50
2023/09/18 10:17:10;;;;;;;2.60;0.70;;;23.20;99.90;;;;;;5016326;28;20048;-54
2023/09/18 10:20:08;;;;;;;2.40;0.90;;;23.60;99.90;;;;;;5033943;28;20470;-51
2023/09/18 10:22:46;;;;;;;1.33;0.85;;;23.80;99.90;;;;;;5034120;28;20041;-53
2023/09/18 10:25:20;;;;;;;2.47;0.85;;;24.00;99.90;;;;;;5034150;28;20119;-52
2023/09/18 10:27:53;;;;;;;1.85;1.00;;;24.90;99.90;;;;;;5034287;28;20124;-54
2023/09/18 10:30:22;;;;;;;4.07;0.88;;;25.80;99.90;;;;;;5033670;28;20037;-54
2023/09/18 10:32:49;;;;;;;2.78;0.93;;;26.60;99.90;;;;;;5034107;28;20033;-55
2023/09/18 10:35:15;;;;;;;3.50;0.80;;;27.20;99.90;;;;;;5033930;28;20037;-53
2023/09/18 10:37:45;;;;;;;3.13;1.05;;;27.50;99.90;;;;;;5033777;28;20108;-55
2023/09/18 10:40:12;;;;;;;2.20;0.90;;;27.80;99.90;;;;;;5033580;28;20546;-52
2023/09/18 10:42:39;;;;;;;1.80;0.88;;;27.70;99.90;;;;;;5034219;28;20037;-49
2023/09/18 10:45:07;;;;;;;1.65;1.02;;;27.60;99.90;;;;;;5034083;28;20034;-53
2023/09/18 10:47:34;;;;;;;1.98;0.93;;;27.60;99.90;;;;;;5033755;28;20397;-54
2023/09/18 10:50:00;;;;;;;4.40;1.00;;;27.30;99.90;;;;;;5033563;28;20030;-54
2023/09/18 10:52:27;;;;;;;1.90;0.82;;;27.40;99.90;;;;;;5033680;28;20079;-52
2023/09/18 10:54:53;;;;;;;3.50;1.00;;;27.40;99.90;;;;;;5015729;28;20083;-55
2023/09/18 10:57:18;;;;;;;3.85;1.50;;;27.00;99.90;;;;;;5033145;28;20061;-53
2023/09/18 10:59:47;;;;;;;1.42;1.00;;;26.70;99.90;;;;;;5033218;28;20057;-51
2023/09/18 11:02:17;;;;;;;2.22;1.38;;;26.20;99.90;;;;;;5033494;28;20026;-53
2023/09/18 11:04:44;;;;;;;4.78;1.10;;;25.80;99.90;;;;;;5033015;28;20432;-53
2023/09/18 11:07:20;;;;;;;2.50;0.95;;;25.60;99.90;;;;;;5033008;28;20397;-54
2023/09/18 11:09:46;;;;;;;3.45;1.10;;;25.40;99.90;;;;;;5032823;28;20459;-55
2023/09/18 11:12:15;;;;;;;3.65;1.10;;;25.30;99.90;;;;;;5033118;28;20128;-53
2023/09/18 11:14:58;;;;;;;2.45;1.27;;;25.30;99.90;;;;;;5033076;28;20163;-54
2023/09/18 11:17:38;;;;;;;3.88;1.02;;;25.20;99.90;;;;;;5033065;28;20040;-50
2023/09/18 11:20:09;;;;;;;1.45;0.90;;;25.30;99.90;;;;;;5032734;28;20087;-54
2023/09/18 11:22:36;;;;;;;2.67;1.05;;;25.40;99.90;;;;;;5032907;28;20037;-55
2023/09/18 11:25:34;;;;;;;2.83;1.20;;;25.50;99.90;;;;;;5032890;28;20025;-55
2023/09/18 11:28:01;;;;;;;2.38;1.30;;;25.60;99.90;;;;;;5032469;28;20029;-51
2023/09/18 11:30:30;;;;;;;5.70;1.50;;;25.70;99.90;;;;;;5032239;28;20393;-55
2023/09/18 11:32:56;;;;;;;1.70;1.10;;;25.90;99.90;;;;;;5032768;28;20040;-55
2023/09/18 11:35:22;;;;;;;1.92;1.08;;;25.70;99.90;;;;;;5014886;28;20530;-55
2023/09/18 11:38:05;;;;;;;3.75;1.20;;;25.50;99.90;;;;;;5032506;28;20060;-54
2023/09/18 11:40:38;;;;;;;2.67;1.40;;;25.20;99.90;;;;;;5032156;28;20393;-55
2023/09/18 11:43:25;;;;;;;4.05;1.52;;;25.00;99.90;;;;;;5032626;28;20036;-55
2023/09/18 11:45:53;;;;;;;4.15;1.20;;;24.90;99.90;;;;;;5032851;28;20072;-54
2023/09/18 11:48:20;;;;;;;7.88;1.70;;;24.90;99.90;;;;;;5014743;28;20072;-50
2023/09/18 11:50:48;;;;;;;2.80;1.10;;;25.00;99.90;;;;;;5032242;28;20032;-55
2023/09/18 11:53:14;;;;;;;;;;;25.20;99.90;;;;;;5032832;28;20033;-52
2023/09/18 11:55:40;;;;;;;3.63;1.27;;;25.40;99.90;;;;;;5032591;28;20163;-55
2023/09/18 11:58:09;;;;;;;2.40;0.90;;;25.70;99.90;;;;;;5032546;28;20500;-53
2023/09/18 12:00:45;;;;;;;2.85;1.27;;;25.70;99.90;;;;;;5032081;28;20281;-54
2023/09/18 12:03:24;;;;;;;3.13;1.20;;;25.70;99.90;;;;;;5014635;28;20033;-54
2023/09/18 12:06:00;;;;;;;3.55;1.40;;;25.70;99.90;;;;;;5014625;28;20033;-53
2023/09/18 12:08:29;;;;;;;1.90;1.23;;;25.80;99.90;;;;;;5032193;28;20390;-55
2023/09/18 12:10:55;;;;;;;3.60;1.52;;;25.80;99.90;;;;;;5032161;28;20037;-51
2023/09/18 12:13:21;;;;;;;3.85;1.70;;;25.50;99.90;;;;;;5032799;28;20041;-55
2023/09/18 12:15:49;;;;;;;5.05;2.10;;;25.40;99.90;;;;;;5032338;28;20021;-54
2023/09/18 12:18:15;;;;;;;7.00;1.83;;;25.20;99.90;;;;;;5031727;28;20087;-53
2023/09/18 12:20:48;;;;;;;2.67;1.33;;;25.00;99.90;;;;;;5031783;28;20029;-54
2023/09/18 12:23:15;;;;;;;2.92;1.40;;;25.00;99.90;;;;;;5031967;28;20168;-53
2023/09/18 12:25:44;;;;;;;2.72;1.27;;;25.00;99.90;;;;;;5014523;28;20083;-54
2023/09/18 12:28:10;;;;;;;2.40;1.02;;;25.00;99.90;;;;;;5014373;28;20029;-54
2023/09/18 12:30:36;;;;;;;4.25;1.50;;;25.00;99.90;;;;;;5031593;28;20045;-52
2023/09/18 12:33:05;;;;;;;2.88;1.23;;;25.00;99.90;;;;;;5032070;28;20038;-52
2023/09/18 12:35:31;;;;;;;4.03;1.30;;;25.20;99.90;;;;;;5031846;28;20087;-54
2023/09/18 12:38:00;;;;;;;10.15;1.35;;;25.30;99.90;;;;;;5031911;28;20458;-50
2023/09/18 12:40:28;;;;;;;3.33;1.50;;;25.40;99.90;;;;;;5031804;28;20113;-52
2023/09/18 12:42:56;;;;;;;3.03;1.17;;;25.50;99.90;;;;;;5014284;28;20131;-55
2023/09/18 12:45:23;;;;;;;4.20;1.27;;;25.60;99.90;;;;;;5032009;28;20045;-53
2023/09/18 12:47:50;;;;;;;3.67;1.20;;;25.60;99.90;;;;;;5031761;28;20440;-52